sensor_id;sensor_type;location;lat;lon;timestamp;temperature;humidity
3752;DHT22;50827;47.014;7.652;2024-02-15T00:00:52;7.50;99.90
3752;DHT22;50827;47.014;7.652;2024-02-15T00:03:20;7.50;99.90
3752;DHT22;50827;47.014;7.652;2024-02-15T00:05:47;7.40;99.90
3752;DHT22;50827;47.014;7.652;2024-02-15T00:08:14;7.40;99.90
3752;DHT22;50827;47.014;7.652;2024-02-15T00:10:41;7.40;99.90
3752;DHT22;50827;47.014;7.652;2024-02-15T00:13:08;7.40;99.90
3752;DHT22;50827;47.014;7.652;2024-02-15T00:15:35;7.40;99.90
3752;DHT22;50827;47.014;7.652;2024-02-15T00:18:03;7.40;99.90
3752;DHT22;50827;47.014;7.652;2024-02-15T00:20:30;7.40;99.90
3752;DHT22;50827;47.014;7.652;2024-02-15T00:22:57;7.40;99.90
3752;DHT22;50827;47.014;7.652;2024-02-15T00:25:24;7.40;99.90
3752;DHT22;50827;47.014;7.652;2024-02-15T00:27:52;7.30;99.90
3752;DHT22;50827;47.014;7.652;2024-02-15T00:30:19;7.20;99.90
3752;DHT22;50827;47.014;7.652;2024-02-15T00:32:45;7.30;99.90
3752;DHT22;50827;47.014;7.652;2024-02-15T00:35:13;7.20;99.90
3752;DHT22;50827;47.014;7.652;2024-02-15T00:37:40;7.30;99.90
3752;DHT22;50827;47.014;7.652;2024-02-15T00:40:08;7.30;99.90
3752;DHT22;50827;47.014;7.652;2024-02-15T00:42:35;7.20;99.90
3752;DHT22;50827;47.014;7.652;2024-02-15T00:45:03;7.20;99.90
3752;DHT22;50827;47.014;7.652;2024-02-15T00:47:31;7.20;99.90
3752;DHT22;50827;47.014;7.652;2024-02-15T00:49:59;7.20;99.90
3752;DHT22;50827;47.014;7.652;2024-02-15T00:52:26;7.10;99.90
3752;DHT22;50827;47.014;7.652;2024-02-15T00:54:53;7.10;99.90
3752;DHT22;50827;47.014;7.652;2024-02-15T00:57:19;7.00;99.90
3752;DHT22;50827;47.014;7.652;2024-02-15T00:59:46;7.00;99.90
3752;DHT22;50827;47.014;7.652;2024-02-15T01:02:13;7.00;99.90
3752;DHT22;50827;47.014;7.652;2024-02-15T01:04:40;7.00;99.90
3752;DHT22;50827;47.014;7.652;2024-02-15T01:07:09;6.90;99.90
3752;DHT22;50827;47.014;7.652;2024-02-15T01:09:36;6.90;99.90
3752;DHT22;50827;47.014;7.652;2024-02-15T01:12:02;6.80;99.90
3752;DHT22;50827;47.014;7.652;2024-02-15T01:14:30;6.80;99.90
3752;DHT22;50827;47.014;7.652;2024-02-15T01:16:58;6.70;99.90
3752;DHT22;50827;47.014;7.652;2024-02-15T01:19:25;6.70;99.90
3752;DHT22;50827;47.014;7.652;2024-02-15T01:21:52;6.70;99.90
3752;DHT22;50827;47.014;7.652;2024-02-15T01:24:20;6.70;99.90
3752;DHT22;50827;47.014;7.652;2024-02-15T01:26:46;6.60;99.90
3752;DHT22;50827;47.014;7.652;2024-02-15T01:29:14;6.70;99.90
3752;DHT22;50827;47.014;7.652;2024-02-15T01:31:42;6.60;99.90
3752;DHT22;50827;47.014;7.652;2024-02-15T01:34:09;6.60;99.90
3752;DHT22;50827;47.014;7.652;2024-02-15T01:36:36;6.60;99.90
3752;DHT22;50827;47.014;7.652;2024-02-15T01:39:02;6.50;99.90
3752;DHT22;50827;47.014;7.652;2024-02-15T01:41:29;6.60;99.90
3752;DHT22;50827;47.014;7.652;2024-02-15T01:43:56;6.60;99.90
3752;DHT22;50827;47.014;7.652;2024-02-15T01:46:23;6.60;99.90
3752;DHT22;50827;47.014;7.652;2024-02-15T01:48:49;6.50;99.90
3752;DHT22;50827;47.014;7.652;2024-02-15T01:51:17;6.50;99.90
3752;DHT22;50827;47.014;7.652;2024-02-15T01:53:44;6.50;99.90
3752;DHT22;50827;47.014;7.652;2024-02-15T01:56:13;6.50;99.90
3752;DHT22;50827;47.014;7.652;2024-02-15T01:58:41;6.50;99.90
3752;DHT22;50827;47.014;7.652;2024-02-15T02:01:09;6.40;99.90
3752;DHT22;50827;47.014;7.652;2024-02-15T02:03:39;6.40;99.90
3752;DHT22;50827;47.014;7.652;2024-02-15T02:06:05;6.30;99.90
3752;DHT22;50827;47.014;7.652;2024-02-15T02:08:33;6.30;99.90
3752;DHT22;50827;47.014;7.652;2024-02-15T02:11:00;6.30;99.90
3752;DHT22;50827;47.014;7.652;2024-02-15T02:13:28;6.20;99.90
3752;DHT22;50827;47.014;7.652;2024-02-15T02:15:57;6.20;99.90
3752;DHT22;50827;47.014;7.652;2024-02-15T02:18:23;6.20;99.90
3752;DHT22;50827;47.014;7.652;2024-02-15T02:20:51;6.20;99.90
3752;DHT22;50827;47.014;7.652;2024-02-15T02:23:21;6.20;99.90
3752;DHT22;50827;47.014;7.652;2024-02-15T02:25:54;6.20;99.90
3752;DHT22;50827;47.014;7.652;2024-02-15T02:28:21;6.20;99.90
3752;DHT22;50827;47.014;7.652;2024-02-15T02:30:49;6.10;99.90
3752;DHT22;50827;47.014;7.652;2024-02-15T02:33:15;6.10;99.90
3752;DHT22;50827;47.014;7.652;2024-02-15T02:35:47;6.10;99.90
3752;DHT22;50827;47.014;7.652;2024-02-15T02:38:14;6.00;99.90
3752;DHT22;50827;47.014;7.652;2024-02-15T02:40:41;6.00;99.90
3752;DHT22;50827;47.014;7.652;2024-02-15T02:43:08;6.00;99.90
3752;DHT22;50827;47.014;7.652;2024-02-15T02:45:36;5.90;99.90
3752;DHT22;50827;47.014;7.652;2024-02-15T02:48:03;6.00;99.90
3752;DHT22;50827;47.014;7.652;2024-02-15T02:50:30;5.90;99.90
3752;DHT22;50827;47.014;7.652;2024-02-15T02:52:57;5.90;99.90
3752;DHT22;50827;47.014;7.652;2024-02-15T03:02:21;5.80;99.90
3752;DHT22;50827;47.014;7.652;2024-02-15T03:04:49;5.70;99.90
3752;DHT22;50827;47.014;7.652;2024-02-15T03:07:16;5.80;99.90
3752;DHT22;50827;47.014;7.652;2024-02-15T03:09:45;5.70;99.90
3752;DHT22;50827;47.014;7.652;2024-02-15T03:12:12;5.70;99.90
3752;DHT22;50827;47.014;7.652;2024-02-15T03:14:38;5.70;99.90
3752;DHT22;50827;47.014;7.652;2024-02-15T03:17:07;5.70;99.90
3752;DHT22;50827;47.014;7.652;2024-02-15T03:19:34;5.70;99.90
3752;DHT22;50827;47.014;7.652;2024-02-15T03:22:01;5.70;99.90
3752;DHT22;50827;47.014;7.652;2024-02-15T03:24:28;5.60;99.90
3752;DHT22;50827;47.014;7.652;2024-02-15T03:26:54;5.60;99.90
3752;DHT22;50827;47.014;7.652;2024-02-15T03:29:22;5.60;99.90
3752;DHT22;50827;47.014;7.652;2024-02-15T03:31:49;5.60;99.90
3752;DHT22;50827;47.014;7.652;2024-02-15T03:34:15;5.60;99.90
3752;DHT22;50827;47.014;7.652;2024-02-15T03:36:43;5.60;99.90
3752;DHT22;50827;47.014;7.652;2024-02-15T03:39:09;5.50;99.90
3752;DHT22;50827;47.014;7.652;2024-02-15T03:41:36;5.50;99.90
3752;DHT22;50827;47.014;7.652;2024-02-15T03:44:03;5.60;99.90
3752;DHT22;50827;47.014;7.652;2024-02-15T03:46:30;5.60;99.90
3752;DHT22;50827;47.014;7.652;2024-02-15T03:48:57;5.60;99.90
3752;DHT22;50827;47.014;7.652;2024-02-15T03:51:24;5.60;99.90
3752;DHT22;50827;47.014;7.652;2024-02-15T03:53:51;5.60;99.90
3752;DHT22;50827;47.014;7.652;2024-02-15T03:56:19;5.50;99.90
3752;DHT22;50827;47.014;7.652;2024-02-15T03:58:48;5.50;99.90
3752;DHT22;50827;47.014;7.652;2024-02-15T04:01:16;5.50;99.90
3752;DHT22;50827;47.014;7.652;2024-02-15T04:03:43;5.50;99.90
3752;DHT22;50827;47.014;7.652;2024-02-15T04:06:11;5.50;99.90
3752;DHT22;50827;47.014;7.652;2024-02-15T04:08:38;5.50;99.90
3752;DHT22;50827;47.014;7.652;2024-02-15T04:11:06;5.40;99.90
3752;DHT22;50827;47.014;7.652;2024-02-15T04:13:34;5.50;99.90
3752;DHT22;50827;47.014;7.652;2024-02-15T04:16:00;5.50;99.90
3752;DHT22;50827;47.014;7.652;2024-02-15T04:18:27;5.50;99.90
3752;DHT22;50827;47.014;7.652;2024-02-15T04:20:58;5.40;99.90
3752;DHT22;50827;47.014;7.652;2024-02-15T04:23:25;5.40;99.90
3752;DHT22;50827;47.014;7.652;2024-02-15T04:25:52;5.30;99.90
3752;DHT22;50827;47.014;7.652;2024-02-15T04:28:20;5.30;99.90
3752;DHT22;50827;47.014;7.652;2024-02-15T04:30:47;5.20;99.90
3752;DHT22;50827;47.014;7.652;2024-02-15T04:33:15;5.20;99.90
3752;DHT22;50827;47.014;7.652;2024-02-15T04:35:43;5.20;99.90
3752;DHT22;50827;47.014;7.652;2024-02-15T04:38:10;5.20;99.90
3752;DHT22;50827;47.014;7.652;2024-02-15T04:40:37;5.20;99.90
3752;DHT22;50827;47.014;7.652;2024-02-15T04:43:06;5.20;99.90
3752;DHT22;50827;47.014;7.652;2024-02-15T04:45:35;5.20;99.90
3752;DHT22;50827;47.014;7.652;2024-02-15T04:48:02;5.20;99.90
3752;DHT22;50827;47.014;7.652;2024-02-15T04:50:29;5.20;99.90
3752;DHT22;50827;47.014;7.652;2024-02-15T04:52:56;5.30;99.90
3752;DHT22;50827;47.014;7.652;2024-02-15T04:55:23;5.30;99.90
3752;DHT22;50827;47.014;7.652;2024-02-15T04:57:50;5.30;99.90
3752;DHT22;50827;47.014;7.652;2024-02-15T05:00:23;5.30;99.90
3752;DHT22;50827;47.014;7.652;2024-02-15T05:02:52;5.30;99.90
3752;DHT22;50827;47.014;7.652;2024-02-15T05:05:20;5.40;99.90
3752;DHT22;50827;47.014;7.652;2024-02-15T05:07:47;5.40;99.90
3752;DHT22;50827;47.014;7.652;2024-02-15T05:10:15;5.40;99.90
3752;DHT22;50827;47.014;7.652;2024-02-15T05:12:42;5.40;99.90
3752;DHT22;50827;47.014;7.652;2024-02-15T05:15:09;5.50;99.90
3752;DHT22;50827;47.014;7.652;2024-02-15T05:17:40;5.40;99.90
3752;DHT22;50827;47.014;7.652;2024-02-15T05:20:10;5.50;99.90
3752;DHT22;50827;47.014;7.652;2024-02-15T05:22:41;5.40;99.90
3752;DHT22;50827;47.014;7.652;2024-02-15T05:25:17;5.40;99.90
3752;DHT22;50827;47.014;7.652;2024-02-15T05:27:51;5.40;99.90
3752;DHT22;50827;47.014;7.652;2024-02-15T05:30:20;5.40;99.90
3752;DHT22;50827;47.014;7.652;2024-02-15T05:32:46;5.40;99.90
3752;DHT22;50827;47.014;7.652;2024-02-15T05:35:14;5.40;99.90
3752;DHT22;50827;47.014;7.652;2024-02-15T05:37:41;5.40;99.90
3752;DHT22;50827;47.014;7.652;2024-02-15T05:40:08;5.40;99.90
3752;DHT22;50827;47.014;7.652;2024-02-15T05:42:42;5.40;99.90
3752;DHT22;50827;47.014;7.652;2024-02-15T05:45:30;5.40;99.90
3752;DHT22;50827;47.014;7.652;2024-02-15T05:48:00;5.30;99.90
3752;DHT22;50827;47.014;7.652;2024-02-15T05:50:27;5.30;99.90
3752;DHT22;50827;47.014;7.652;2024-02-15T05:52:56;5.30;99.90
3752;DHT22;50827;47.014;7.652;2024-02-15T05:55:25;5.30;99.90
3752;DHT22;50827;47.014;7.652;2024-02-15T05:57:53;5.30;99.90
3752;DHT22;50827;47.014;7.652;2024-02-15T06:00:20;5.30;99.90
3752;DHT22;50827;47.014;7.652;2024-02-15T06:02:49;5.40;99.90
3752;DHT22;50827;47.014;7.652;2024-02-15T06:05:18;5.40;99.90
3752;DHT22;50827;47.014;7.652;2024-02-15T06:07:45;5.40;99.90
3752;DHT22;50827;47.014;7.652;2024-02-15T06:10:14;5.40;99.90
3752;DHT22;50827;47.014;7.652;2024-02-15T06:12:41;5.40;99.90
3752;DHT22;50827;47.014;7.652;2024-02-15T06:15:08;5.40;99.90
3752;DHT22;50827;47.014;7.652;2024-02-15T06:17:41;5.40;99.90
3752;DHT22;50827;47.014;7.652;2024-02-15T06:20:15;5.40;99.90
3752;DHT22;50827;47.014;7.652;2024-02-15T06:22:42;5.40;99.90
3752;DHT22;50827;47.014;7.652;2024-02-15T06:25:09;5.40;99.90
3752;DHT22;50827;47.014;7.652;2024-02-15T06:27:39;5.40;99.90
3752;DHT22;50827;47.014;7.652;2024-02-15T06:30:12;5.40;99.90
3752;DHT22;50827;47.014;7.652;2024-02-15T06:32:57;5.40;99.90
3752;DHT22;50827;47.014;7.652;2024-02-15T06:35:43;5.40;99.90
3752;DHT22;50827;47.014;7.652;2024-02-15T06:38:29;5.40;99.90
3752;DHT22;50827;47.014;7.652;2024-02-15T06:41:14;5.40;99.90
3752;DHT22;50827;47.014;7.652;2024-02-15T06:43:41;5.40;99.90
3752;DHT22;50827;47.014;7.652;2024-02-15T06:46:08;5.40;99.90
3752;DHT22;50827;47.014;7.652;2024-02-15T06:48:35;5.40;99.90
3752;DHT22;50827;47.014;7.652;2024-02-15T06:51:03;5.40;99.90
3752;DHT22;50827;47.014;7.652;2024-02-15T06:53:30;5.50;99.90
3752;DHT22;50827;47.014;7.652;2024-02-15T06:55:57;5.40;99.90
3752;DHT22;50827;47.014;7.652;2024-02-15T06:58:23;5.50;99.90
3752;DHT22;50827;47.014;7.652;2024-02-15T07:00:51;5.50;99.90
3752;DHT22;50827;47.014;7.652;2024-02-15T07:03:18;5.50;99.90
3752;DHT22;50827;47.014;7.652;2024-02-15T07:05:44;5.60;99.90
3752;DHT22;50827;47.014;7.652;2024-02-15T07:08:11;5.50;99.90
3752;DHT22;50827;47.014;7.652;2024-02-15T07:10:41;5.60;99.90
3752;DHT22;50827;47.014;7.652;2024-02-15T07:13:08;5.50;99.90
3752;DHT22;50827;47.014;7.652;2024-02-15T07:15:34;5.50;99.90
3752;DHT22;50827;47.014;7.652;2024-02-15T07:18:05;5.50;99.90
3752;DHT22;50827;47.014;7.652;2024-02-15T07:20:35;5.50;99.90
3752;DHT22;50827;47.014;7.652;2024-02-15T07:23:02;5.60;99.90
3752;DHT22;50827;47.014;7.652;2024-02-15T07:25:30;5.60;99.90
3752;DHT22;50827;47.014;7.652;2024-02-15T07:27:57;5.70;99.90
3752;DHT22;50827;47.014;7.652;2024-02-15T07:30:23;5.70;99.90
3752;DHT22;50827;47.014;7.652;2024-02-15T07:32:52;5.70;99.90
3752;DHT22;50827;47.014;7.652;2024-02-15T07:35:19;5.70;99.90
3752;DHT22;50827;47.014;7.652;2024-02-15T07:37:53;5.70;99.90
3752;DHT22;50827;47.014;7.652;2024-02-15T07:40:25;5.70;99.90
3752;DHT22;50827;47.014;7.652;2024-02-15T07:42:56;5.70;99.90
3752;DHT22;50827;47.014;7.652;2024-02-15T07:45:24;5.70;99.90
3752;DHT22;50827;47.014;7.652;2024-02-15T07:47:51;5.70;99.90
3752;DHT22;50827;47.014;7.652;2024-02-15T07:50:18;5.80;99.90
3752;DHT22;50827;47.014;7.652;2024-02-15T07:52:49;5.80;99.90
3752;DHT22;50827;47.014;7.652;2024-02-15T07:55:16;5.90;99.90
3752;DHT22;50827;47.014;7.652;2024-02-15T07:57:43;5.90;99.90
3752;DHT22;50827;47.014;7.652;2024-02-15T08:00:10;6.00;99.90
3752;DHT22;50827;47.014;7.652;2024-02-15T08:02:38;6.10;99.90
3752;DHT22;50827;47.014;7.652;2024-02-15T08:05:11;6.10;99.90
3752;DHT22;50827;47.014;7.652;2024-02-15T08:07:43;6.10;99.90
3752;DHT22;50827;47.014;7.652;2024-02-15T08:10:14;6.20;99.90
3752;DHT22;50827;47.014;7.652;2024-02-15T08:12:44;6.30;99.90
3752;DHT22;50827;47.014;7.652;2024-02-15T08:15:11;6.30;99.90
3752;DHT22;50827;47.014;7.652;2024-02-15T08:17:42;6.40;99.90
3752;DHT22;50827;47.014;7.652;2024-02-15T08:20:12;6.40;99.90
3752;DHT22;50827;47.014;7.652;2024-02-15T08:22:40;6.50;99.90
3752;DHT22;50827;47.014;7.652;2024-02-15T08:25:11;6.50;99.90
3752;DHT22;50827;47.014;7.652;2024-02-15T08:27:39;6.60;99.90
3752;DHT22;50827;47.014;7.652;2024-02-15T08:30:09;6.60;99.90
3752;DHT22;50827;47.014;7.652;2024-02-15T08:32:40;6.70;99.90
3752;DHT22;50827;47.014;7.652;2024-02-15T08:35:12;6.80;99.90
3752;DHT22;50827;47.014;7.652;2024-02-15T08:37:40;6.90;99.90
3752;DHT22;50827;47.014;7.652;2024-02-15T08:40:09;6.90;99.90
3752;DHT22;50827;47.014;7.652;2024-02-15T08:42:42;7.00;99.90
3752;DHT22;50827;47.014;7.652;2024-02-15T08:45:10;7.00;99.90
3752;DHT22;50827;47.014;7.652;2024-02-15T08:47:41;7.10;99.90
3752;DHT22;50827;47.014;7.652;2024-02-15T08:50:09;7.10;99.90
3752;DHT22;50827;47.014;7.652;2024-02-15T08:52:37;7.20;99.90
3752;DHT22;50827;47.014;7.652;2024-02-15T08:55:09;7.20;99.90
3752;DHT22;50827;47.014;7.652;2024-02-15T08:57:36;7.30;99.90
3752;DHT22;50827;47.014;7.652;2024-02-15T09:00:07;7.30;99.90
3752;DHT22;50827;47.014;7.652;2024-02-15T09:02:44;7.30;99.90
3752;DHT22;50827;47.014;7.652;2024-02-15T09:05:11;7.40;99.90
3752;DHT22;50827;47.014;7.652;2024-02-15T09:07:41;7.40;99.90
3752;DHT22;50827;47.014;7.652;2024-02-15T09:10:10;7.50;99.90
3752;DHT22;50827;47.014;7.652;2024-02-15T09:12:38;7.50;99.90
3752;DHT22;50827;47.014;7.652;2024-02-15T09:15:07;7.60;99.90
3752;DHT22;50827;47.014;7.652;2024-02-15T09:17:35;7.60;99.90
3752;DHT22;50827;47.014;7.652;2024-02-15T09:20:07;7.60;99.90
3752;DHT22;50827;47.014;7.652;2024-02-15T09:22:35;7.70;99.90
3752;DHT22;50827;47.014;7.652;2024-02-15T09:25:02;7.80;99.90
3752;DHT22;50827;47.014;7.652;2024-02-15T09:27:29;7.80;99.90
3752;DHT22;50827;47.014;7.652;2024-02-15T09:29:56;7.90;99.90
3752;DHT22;50827;47.014;7.652;2024-02-15T09:32:23;7.90;99.90
3752;DHT22;50827;47.014;7.652;2024-02-15T09:34:50;8.00;99.90
3752;DHT22;50827;47.014;7.652;2024-02-15T09:37:16;8.10;99.90
3752;DHT22;50827;47.014;7.652;2024-02-15T09:39:43;8.10;99.90
3752;DHT22;50827;47.014;7.652;2024-02-15T09:42:10;8.20;99.90
3752;DHT22;50827;47.014;7.652;2024-02-15T09:44:37;8.30;99.90
3752;DHT22;50827;47.014;7.652;2024-02-15T09:47:06;8.40;99.90
3752;DHT22;50827;47.014;7.652;2024-02-15T09:49:39;8.40;99.90
3752;DHT22;50827;47.014;7.652;2024-02-15T09:52:07;8.50;99.90
3752;DHT22;50827;47.014;7.652;2024-02-15T09:54:44;8.50;99.90
3752;DHT22;50827;47.014;7.652;2024-02-15T09:57:11;8.60;99.90
3752;DHT22;50827;47.014;7.652;2024-02-15T09:59:39;8.60;99.90
3752;DHT22;50827;47.014;7.652;2024-02-15T10:02:07;8.70;99.90
3752;DHT22;50827;47.014;7.652;2024-02-15T10:04:39;8.80;99.90
3752;DHT22;50827;47.014;7.652;2024-02-15T10:07:05;8.80;99.90
3752;DHT22;50827;47.014;7.652;2024-02-15T10:09:36;8.90;99.90
3752;DHT22;50827;47.014;7.652;2024-02-15T10:12:09;8.90;99.90
3752;DHT22;50827;47.014;7.652;2024-02-15T10:14:36;9.00;99.90
3752;DHT22;50827;47.014;7.652;2024-02-15T10:17:06;9.10;99.90
3752;DHT22;50827;47.014;7.652;2024-02-15T10:19:38;9.10;99.90
3752;DHT22;50827;47.014;7.652;2024-02-15T10:22:10;9.20;99.90
3752;DHT22;50827;47.014;7.652;2024-02-15T10:24:37;9.20;99.90
3752;DHT22;50827;47.014;7.652;2024-02-15T10:27:06;9.30;99.90
3752;DHT22;50827;47.014;7.652;2024-02-15T10:29:33;9.40;99.90
3752;DHT22;50827;47.014;7.652;2024-02-15T10:32:01;9.40;99.90
3752;DHT22;50827;47.014;7.652;2024-02-15T10:34:29;9.60;99.90
3752;DHT22;50827;47.014;7.652;2024-02-15T10:37:14;9.60;99.90
3752;DHT22;50827;47.014;7.652;2024-02-15T10:39:43;9.70;99.90
3752;DHT22;50827;47.014;7.652;2024-02-15T10:42:10;9.80;99.90
3752;DHT22;50827;47.014;7.652;2024-02-15T10:44:38;9.90;99.90
3752;DHT22;50827;47.014;7.652;2024-02-15T10:47:05;10.00;99.90
3752;DHT22;50827;47.014;7.652;2024-02-15T10:49:35;10.00;99.90
3752;DHT22;50827;47.014;7.652;2024-02-15T10:52:04;10.10;99.90
3752;DHT22;50827;47.014;7.652;2024-02-15T10:54:41;10.20;99.90
3752;DHT22;50827;47.014;7.652;2024-02-15T10:57:10;10.30;99.90
3752;DHT22;50827;47.014;7.652;2024-02-15T10:59:53;10.30;99.90
3752;DHT22;50827;47.014;7.652;2024-02-15T11:02:42;10.40;99.90
3752;DHT22;50827;47.014;7.652;2024-02-15T11:05:14;10.50;99.90
3752;DHT22;50827;47.014;7.652;2024-02-15T11:07:47;10.50;99.90
3752;DHT22;50827;47.014;7.652;2024-02-15T11:10:14;10.60;99.90
3752;DHT22;50827;47.014;7.652;2024-02-15T11:12:43;10.70;99.90
3752;DHT22;50827;47.014;7.652;2024-02-15T11:18:05;10.80;99.90
3752;DHT22;50827;47.014;7.652;2024-02-15T11:23:01;10.90;99.90
3752;DHT22;50827;47.014;7.652;2024-02-15T11:25:34;10.90;99.90
3752;DHT22;50827;47.014;7.652;2024-02-15T11:30:47;11.00;99.90
3752;DHT22;50827;47.014;7.652;2024-02-15T11:33:30;11.10;99.90
3752;DHT22;50827;47.014;7.652;2024-02-15T11:36:10;11.20;99.90
3752;DHT22;50827;47.014;7.652;2024-02-15T11:38:39;11.20;99.90
3752;DHT22;50827;47.014;7.652;2024-02-15T11:41:17;11.30;99.90
3752;DHT22;50827;47.014;7.652;2024-02-15T11:43:46;11.30;99.90
3752;DHT22;50827;47.014;7.652;2024-02-15T11:46:18;11.40;99.90
3752;DHT22;50827;47.014;7.652;2024-02-15T11:48:46;11.40;99.90
3752;DHT22;50827;47.014;7.652;2024-02-15T11:51:34;11.50;99.90
3752;DHT22;50827;47.014;7.652;2024-02-15T11:54:10;11.50;99.90
3752;DHT22;50827;47.014;7.652;2024-02-15T11:59:16;11.60;99.90
3752;DHT22;50827;47.014;7.652;2024-02-15T12:01:56;11.60;99.90
3752;DHT22;50827;47.014;7.652;2024-02-15T12:04:42;11.70;99.90
3752;DHT22;50827;47.014;7.652;2024-02-15T12:07:31;11.70;99.90
3752;DHT22;50827;47.014;7.652;2024-02-15T12:10:20;11.80;99.90
3752;DHT22;50827;47.014;7.652;2024-02-15T12:13:05;11.90;99.90
3752;DHT22;50827;47.014;7.652;2024-02-15T12:15:58;11.90;99.90
3752;DHT22;50827;47.014;7.652;2024-02-15T12:18:44;12.00;99.90
3752;DHT22;50827;47.014;7.652;2024-02-15T12:21:24;12.00;99.90
3752;DHT22;50827;47.014;7.652;2024-02-15T12:23:53;12.00;99.90
3752;DHT22;50827;47.014;7.652;2024-02-15T12:26:20;12.10;99.90
3752;DHT22;50827;47.014;7.652;2024-02-15T12:28:51;12.20;99.90
3752;DHT22;50827;47.014;7.652;2024-02-15T12:31:22;12.20;99.90
3752;DHT22;50827;47.014;7.652;2024-02-15T12:34:02;12.30;99.90
3752;DHT22;50827;47.014;7.652;2024-02-15T12:36:34;12.30;99.90
3752;DHT22;50827;47.014;7.652;2024-02-15T12:39:04;12.40;99.90
3752;DHT22;50827;47.014;7.652;2024-02-15T12:41:40;12.40;99.90
3752;DHT22;50827;47.014;7.652;2024-02-15T12:44:08;12.40;99.90
3752;DHT22;50827;47.014;7.652;2024-02-15T12:46:36;12.50;99.90
3752;DHT22;50827;47.014;7.652;2024-02-15T12:49:10;12.60;99.90
3752;DHT22;50827;47.014;7.652;2024-02-15T12:51:41;12.60;99.90
3752;DHT22;50827;47.014;7.652;2024-02-15T12:54:22;12.60;99.90
3752;DHT22;50827;47.014;7.652;2024-02-15T12:56:49;12.60;99.90
3752;DHT22;50827;47.014;7.652;2024-02-15T12:59:19;12.70;99.90
3752;DHT22;50827;47.014;7.652;2024-02-15T13:01:47;12.70;99.90
3752;DHT22;50827;47.014;7.652;2024-02-15T13:04:25;12.70;99.90
3752;DHT22;50827;47.014;7.652;2024-02-15T13:06:52;12.80;99.90
3752;DHT22;50827;47.014;7.652;2024-02-15T13:09:19;12.70;99.90
3752;DHT22;50827;47.014;7.652;2024-02-15T13:11:48;12.80;99.90
3752;DHT22;50827;47.014;7.652;2024-02-15T13:14:17;12.80;99.90
3752;DHT22;50827;47.014;7.652;2024-02-15T13:16:43;12.80;99.90
3752;DHT22;50827;47.014;7.652;2024-02-15T13:19:11;12.80;99.90
3752;DHT22;50827;47.014;7.652;2024-02-15T13:21:38;12.80;99.90
3752;DHT22;50827;47.014;7.652;2024-02-15T13:24:05;12.80;99.90
3752;DHT22;50827;47.014;7.652;2024-02-15T13:26:32;12.80;99.90
3752;DHT22;50827;47.014;7.652;2024-02-15T13:29:00;12.90;99.90
3752;DHT22;50827;47.014;7.652;2024-02-15T13:31:27;12.80;99.90
3752;DHT22;50827;47.014;7.652;2024-02-15T13:33:54;12.90;99.90
3752;DHT22;50827;47.014;7.652;2024-02-15T13:36:21;12.90;99.90
3752;DHT22;50827;47.014;7.652;2024-02-15T13:38:48;12.90;99.90
3752;DHT22;50827;47.014;7.652;2024-02-15T13:41:18;12.90;99.90
3752;DHT22;50827;47.014;7.652;2024-02-15T13:43:45;12.90;99.90
3752;DHT22;50827;47.014;7.652;2024-02-15T13:46:11;12.90;99.90
3752;DHT22;50827;47.014;7.652;2024-02-15T13:48:38;12.90;99.90
3752;DHT22;50827;47.014;7.652;2024-02-15T13:51:05;12.90;99.90
3752;DHT22;50827;47.014;7.652;2024-02-15T13:53:36;12.90;99.90
3752;DHT22;50827;47.014;7.652;2024-02-15T13:56:03;12.90;99.90
3752;DHT22;50827;47.014;7.652;2024-02-15T13:58:31;12.90;99.90
3752;DHT22;50827;47.014;7.652;2024-02-15T14:00:59;12.90;99.90
3752;DHT22;50827;47.014;7.652;2024-02-15T14:03:30;12.90;99.90
3752;DHT22;50827;47.014;7.652;2024-02-15T14:05:57;12.90;99.90
3752;DHT22;50827;47.014;7.652;2024-02-15T14:08:24;12.90;99.90
3752;DHT22;50827;47.014;7.652;2024-02-15T14:10:52;12.90;99.90
3752;DHT22;50827;47.014;7.652;2024-02-15T14:13:19;12.90;99.90
3752;DHT22;50827;47.014;7.652;2024-02-15T14:15:48;12.90;99.90
3752;DHT22;50827;47.014;7.652;2024-02-15T14:18:15;12.90;99.90
3752;DHT22;50827;47.014;7.652;2024-02-15T14:20:45;12.90;99.90
3752;DHT22;50827;47.014;7.652;2024-02-15T14:23:16;12.90;99.90
3752;DHT22;50827;47.014;7.652;2024-02-15T14:25:43;12.90;99.90
3752;DHT22;50827;47.014;7.652;2024-02-15T14:28:12;12.90;99.90
3752;DHT22;50827;47.014;7.652;2024-02-15T14:30:39;13.00;99.90
3752;DHT22;50827;47.014;7.652;2024-02-15T14:33:25;13.00;99.90
3752;DHT22;50827;47.014;7.652;2024-02-15T14:36:00;13.00;99.90
3752;DHT22;50827;47.014;7.652;2024-02-15T14:38:27;13.00;99.90
3752;DHT22;50827;47.014;7.652;2024-02-15T14:40:55;13.10;99.90
3752;DHT22;50827;47.014;7.652;2024-02-15T14:43:26;13.00;99.90
3752;DHT22;50827;47.014;7.652;2024-02-15T14:45:54;13.10;99.90
3752;DHT22;50827;47.014;7.652;2024-02-15T14:48:24;13.10;99.90
3752;DHT22;50827;47.014;7.652;2024-02-15T14:50:52;13.00;99.90
3752;DHT22;50827;47.014;7.652;2024-02-15T14:53:20;13.00;99.90
3752;DHT22;50827;47.014;7.652;2024-02-15T14:55:47;13.00;99.90
3752;DHT22;50827;47.014;7.652;2024-02-15T14:58:17;13.10;99.90
3752;DHT22;50827;47.014;7.652;2024-02-15T15:00:45;13.00;99.90
3752;DHT22;50827;47.014;7.652;2024-02-15T15:03:14;13.10;99.90
3752;DHT22;50827;47.014;7.652;2024-02-15T15:05:42;13.10;99.90
3752;DHT22;50827;47.014;7.652;2024-02-15T15:08:28;13.00;99.90
3752;DHT22;50827;47.014;7.652;2024-02-15T15:11:14;13.00;99.90
3752;DHT22;50827;47.014;7.652;2024-02-15T15:13:59;13.00;99.90
3752;DHT22;50827;47.014;7.652;2024-02-15T15:16:26;13.00;99.90
3752;DHT22;50827;47.014;7.652;2024-02-15T15:18:54;13.00;99.90
3752;DHT22;50827;47.014;7.652;2024-02-15T15:21:22;12.90;99.90
3752;DHT22;50827;47.014;7.652;2024-02-15T15:23:50;13.00;99.90
3752;DHT22;50827;47.014;7.652;2024-02-15T15:26:19;13.00;99.90
3752;DHT22;50827;47.014;7.652;2024-02-15T15:28:47;13.00;99.90
3752;DHT22;50827;47.014;7.652;2024-02-15T15:31:17;12.90;99.90
3752;DHT22;50827;47.014;7.652;2024-02-15T15:33:47;12.90;99.90
3752;DHT22;50827;47.014;7.652;2024-02-15T15:36:16;12.90;99.90
3752;DHT22;50827;47.014;7.652;2024-02-15T15:38:44;12.90;99.90
3752;DHT22;50827;47.014;7.652;2024-02-15T15:41:12;12.90;99.90
3752;DHT22;50827;47.014;7.652;2024-02-15T15:43:39;12.90;99.90
3752;DHT22;50827;47.014;7.652;2024-02-15T15:46:05;12.90;99.90
3752;DHT22;50827;47.014;7.652;2024-02-15T15:48:32;12.90;99.90
3752;DHT22;50827;47.014;7.652;2024-02-15T15:51:00;12.90;99.90
3752;DHT22;50827;47.014;7.652;2024-02-15T15:53:31;12.90;99.90
3752;DHT22;50827;47.014;7.652;2024-02-15T15:56:01;12.80;99.90
3752;DHT22;50827;47.014;7.652;2024-02-15T15:58:27;12.90;99.90
3752;DHT22;50827;47.014;7.652;2024-02-15T16:00:54;12.90;99.90
3752;DHT22;50827;47.014;7.652;2024-02-15T16:03:21;12.80;99.90
3752;DHT22;50827;47.014;7.652;2024-02-15T16:05:50;12.80;99.90
3752;DHT22;50827;47.014;7.652;2024-02-15T16:08:17;12.80;99.90
3752;DHT22;50827;47.014;7.652;2024-02-15T16:10:43;12.70;99.90
3752;DHT22;50827;47.014;7.652;2024-02-15T16:13:12;12.70;99.90
3752;DHT22;50827;47.014;7.652;2024-02-15T16:15:39;12.80;99.90
3752;DHT22;50827;47.014;7.652;2024-02-15T16:18:07;12.70;99.90
3752;DHT22;50827;47.014;7.652;2024-02-15T16:20:34;12.70;99.90
3752;DHT22;50827;47.014;7.652;2024-02-15T16:23:01;12.80;99.90
3752;DHT22;50827;47.014;7.652;2024-02-15T16:25:28;12.70;99.90
3752;DHT22;50827;47.014;7.652;2024-02-15T16:27:55;12.70;99.90